Time;durP1;ratioP1;P1;durP2;ratioP2;P2;SDS_P1;SDS_P2;PMS_P1;PMS_P2;Temp;Humidity;BMP_temperature;BMP_pressure;BME280_temperature;BME280_humidity;BME280_pressure;Samples;Min_cycle;Max_cycle;Signal;HPM_P1;HPM_P2
2022/02/02 00:02:37;;;;;;;22.83;4.68;;;7.50;99.90;;;;;;5075947;28;20075;-68
2022/02/02 00:05:30;;;;;;;28.23;5.72;;;7.50;99.90;;;;;;5057412;28;20033;-68
2022/02/02 00:07:59;;;;;;;34.10;4.88;;;7.50;99.90;;;;;;5073265;28;20054;-68
2022/02/02 00:13:16;;;;;;;25.77;6.22;;;7.50;99.90;;;;;;5074430;28;20056;-68
2022/02/02 00:20:42;;;;;;;33.47;6.10;;;7.50;99.90;;;;;;5074874;28;20045;-68
2022/02/02 00:23:15;;;;;;;31.80;6.45;;;7.50;99.90;;;;;;5073561;28;20040;-67
2022/02/02 00:25:49;;;;;;;29.45;5.43;;;7.60;99.90;;;;;;5073404;28;20045;-68
2022/02/02 00:28:17;;;;;;;29.80;5.28;;;7.50;99.90;;;;;;5075269;28;20044;-67
2022/02/02 00:30:43;;;;;;;41.25;6.00;;;7.50;99.90;;;;;;5074698;28;20059;-68
2022/02/02 00:33:18;;;;;;;27.90;5.90;;;7.50;99.90;;;;;;5075220;28;20040;-68
2022/02/02 00:35:54;;;;;;;24.38;4.97;;;7.50;99.90;;;;;;5074623;28;20044;-68
2022/02/02 00:38:20;;;;;;;27.77;5.85;;;7.50;99.90;;;;;;5074579;28;20119;-68
2022/02/02 00:40:46;;;;;;;27.45;6.72;;;7.40;99.90;;;;;;5074629;28;20124;-67
2022/02/02 00:43:11;;;;;;;28.20;5.45;;;7.40;99.90;;;;;;5074573;28;20028;-68
2022/02/02 00:45:43;;;;;;;19.88;4.75;;;7.30;99.90;;;;;;5073403;28;20093;-68
2022/02/02 00:48:10;;;;;;;29.63;7.82;;;7.40;99.90;;;;;;5074610;28;20118;-68
2022/02/02 00:50:36;;;;;;;27.55;6.35;;;7.40;99.90;;;;;;5073614;28;20048;-67
2022/02/02 00:53:02;;;;;;;32.30;6.00;;;7.50;99.90;;;;;;5074336;28;20040;-67
2022/02/02 00:55:27;;;;;;;29.98;5.97;;;7.40;99.90;;;;;;5073133;28;20072;-68
2022/02/02 00:57:53;;;;;;;20.85;5.25;;;7.50;99.90;;;;;;5074192;28;20106;-68
2022/02/02 01:00:19;;;;;;;21.38;4.80;;;7.50;99.90;;;;;;5074407;28;20396;-68
2022/02/02 01:02:46;;;;;;;27.33;5.05;;;7.50;99.90;;;;;;5073966;28;20033;-67
2022/02/02 01:05:12;;;;;;;20.30;5.93;;;7.40;99.90;;;;;;5056081;28;20040;-68
2022/02/02 01:10:19;;;;;;;26.92;5.35;;;7.60;99.90;;;;;;5073829;28;20101;-67
2022/02/02 01:20:35;;;;;;;28.30;4.53;;;7.50;99.90;;;;;;5074492;28;20072;-68
2022/02/02 01:28:33;;;;;;;23.20;4.43;;;7.50;99.90;;;;;;5073824;28;20044;-67
2022/02/02 01:31:02;;;;;;;23.00;4.90;;;7.50;99.90;;;;;;5073892;28;20037;-67
2022/02/02 01:33:29;;;;;;;25.25;4.70;;;7.40;99.90;;;;;;5073487;28;20037;-68
2022/02/02 01:35:55;;;;;;;18.83;3.95;;;7.50;99.90;;;;;;5073491;28;20040;-68
2022/02/02 01:38:24;;;;;;;20.35;5.05;;;7.40;99.90;;;;;;5072541;28;20044;-68
2022/02/02 01:40:58;;;;;;;24.85;4.75;;;7.30;99.90;;;;;;5073543;28;20036;-67
2022/02/02 01:43:30;;;;;;;25.67;4.53;;;7.20;99.90;;;;;;5055939;28;20036;-67
2022/02/02 01:46:01;;;;;;;17.75;4.38;;;7.10;99.90;;;;;;5072344;28;20488;-68
2022/02/02 01:48:36;;;;;;;20.55;4.32;;;7.10;99.90;;;;;;5074055;28;20049;-68
2022/02/02 01:56:05;;;;;;;20.95;5.63;;;7.10;99.90;;;;;;5073180;28;20166;-67
2022/02/02 01:59:00;;;;;;;18.90;5.90;;;7.20;99.90;;;;;;5072581;28;20053;-67
2022/02/02 02:01:26;;;;;;;19.52;5.47;;;7.20;99.90;;;;;;5072283;28;20059;-68
2022/02/02 02:03:52;;;;;;;23.25;5.13;;;7.20;99.90;;;;;;5073664;28;20032;-68
2022/02/02 02:06:18;;;;;;;18.83;3.90;;;7.20;99.90;;;;;;5073035;28;20043;-68
2022/02/02 02:08:44;;;;;;;24.30;5.47;;;7.20;99.90;;;;;;5073613;28;20079;-67
2022/02/02 02:11:16;;;;;;;28.42;4.72;;;7.30;99.90;;;;;;5073198;28;20505;-68
2022/02/02 02:16:09;;;;;;;19.98;5.63;;;7.30;99.90;;;;;;5073387;28;20052;-68
2022/02/02 02:18:34;;;;;;;33.08;6.70;;;7.30;99.90;;;;;;5073350;28;20134;-67
2022/02/02 02:21:00;;;;;;;29.95;6.07;;;7.30;99.90;;;;;;5075771;28;20040;-68
2022/02/02 02:23:26;;;;;;;26.25;5.53;;;7.20;99.90;;;;;;5077782;28;20040;-68
2022/02/02 02:25:52;;;;;;;24.02;5.32;;;7.10;99.90;;;;;;5077503;28;20044;-68
2022/02/02 02:30:57;;;;;;;20.92;5.07;;;7.30;99.90;;;;;;5075931;28;20439;-68
2022/02/02 02:57:25;;;;;;;23.63;6.72;;;7.30;99.90;;;;;;5076371;28;20045;-67
2022/02/02 03:00:07;;;;;;;25.00;6.18;;;7.30;99.90;;;;;;5076520;28;20047;-68
2022/02/02 03:30:00;;;;;;;20.27;3.97;;;6.80;99.90;;;;;;5074686;28;20068;-67
2022/02/02 03:51:38;;;;;;;32.78;8.07;;;6.80;99.90;;;;;;5075833;28;20044;-67
2022/02/02 03:54:27;;;;;;;30.73;5.55;;;6.90;99.90;;;;;;5076076;28;20040;-68
2022/02/02 04:04:38;;;;;;;27.40;6.82;;;6.90;99.90;;;;;;5075924;28;20041;-67
2022/02/02 04:07:15;;;;;;;34.95;7.30;;;6.90;99.90;;;;;;5074057;28;20040;-68
2022/02/02 04:09:42;;;;;;;27.67;6.88;;;7.00;99.90;;;;;;5075564;28;20036;-68
2022/02/02 04:39:09;;;;;;;30.52;7.00;;;6.80;99.90;;;;;;5074823;28;20412;-68
2022/02/02 04:55:27;;;;;;;38.65;7.10;;;6.90;99.90;;;;;;5074852;28;20080;-68
2022/02/02 05:00:43;;;;;;;42.65;7.13;;;6.90;99.90;;;;;;5074401;28;20048;-67
2022/02/02 05:06:04;;;;;;;33.38;8.00;;;7.00;99.90;;;;;;5072883;28;20048;-68
2022/02/02 05:18:47;;;;;;;36.38;7.95;;;7.00;99.90;;;;;;5074057;28;20122;-68
2022/02/02 05:53:26;;;;;;;34.63;7.70;;;6.80;99.90;;;;;;5073464;28;20502;-68
2022/02/02 05:55:52;;;;;;;37.38;8.10;;;6.80;99.90;;;;;;5072740;28;20039;-68
2022/02/02 05:58:25;;;;;;;34.15;7.40;;;6.70;99.90;;;;;;5072557;28;20083;-68
2022/02/02 06:00:54;;;;;;;30.60;7.15;;;6.90;99.90;;;;;;5074291;28;20063;-67
2022/02/02 06:03:45;;;;;;;34.97;7.15;;;6.80;99.90;;;;;;5073607;28;20037;-67
2022/02/02 06:06:11;;;;;;;29.02;6.75;;;6.90;99.90;;;;;;5068061;28;20443;-67
2022/02/02 06:08:45;;;;;;;25.20;5.85;;;6.80;99.90;;;;;;5073431;28;20040;-68
2022/02/02 06:11:17;;;;;;;26.08;5.68;;;6.90;99.90;;;;;;5073915;28;20048;-68
2022/02/02 06:13:50;;;;;;;38.90;7.10;;;6.90;99.90;;;;;;5073524;28;20428;-67
2022/02/02 06:16:16;;;;;;;31.33;6.82;;;7.00;99.90;;;;;;5071711;28;20098;-68
2022/02/02 06:18:44;;;;;;;36.60;6.15;;;7.10;99.90;;;;;;5073395;28;20044;-67
2022/02/02 06:21:10;;;;;;;27.70;8.27;;;7.00;99.90;;;;;;5073232;28;20393;-68
2022/02/02 06:23:39;;;;;;;39.83;8.95;;;7.00;99.90;;;;;;5073801;28;20036;-67
2022/02/02 06:26:12;;;;;;;32.55;5.78;;;7.00;99.90;;;;;;5073068;28;20043;-67
2022/02/02 06:28:42;;;;;;;29.58;6.22;;;7.00;99.90;;;;;;5073395;28;20393;-67
2022/02/02 06:31:10;;;;;;;27.45;5.75;;;7.00;99.90;;;;;;5071706;28;20036;-67
2022/02/02 06:33:37;;;;;;;27.88;7.05;;;7.00;99.90;;;;;;5073678;28;20054;-68
2022/02/02 06:36:05;;;;;;;34.88;6.72;;;7.00;99.90;;;;;;5071730;28;20434;-68
2022/02/02 06:38:32;;;;;;;34.60;8.10;;;7.00;99.90;;;;;;5073110;28;20504;-67
2022/02/02 06:40:59;;;;;;;31.75;5.93;;;6.90;99.90;;;;;;5071744;28;20071;-68
2022/02/02 06:43:26;;;;;;;29.85;6.72;;;7.00;99.90;;;;;;5055454;28;20094;-68
2022/02/02 06:45:52;;;;;;;24.80;6.25;;;7.00;99.90;;;;;;5071877;28;20048;-68
2022/02/02 06:48:18;;;;;;;31.45;6.25;;;7.00;99.90;;;;;;5072071;28;20456;-68
2022/02/02 06:50:54;;;;;;;37.45;6.88;;;7.10;99.90;;;;;;5071825;28;20086;-69
2022/02/02 06:53:33;;;;;;;34.95;6.22;;;7.00;99.90;;;;;;5071925;28;20055;-68
2022/02/02 06:56:40;;;;;;;36.03;8.05;;;7.00;99.90;;;;;;5072600;28;20051;-68
2022/02/02 07:02:23;;;;;;;26.95;6.18;;;7.10;99.90;;;;;;5073241;28;20040;-69
2022/02/02 07:08:01;;;;;;;30.10;6.32;;;7.00;99.90;;;;;;5074286;28;20064;-69
2022/02/02 07:10:31;;;;;;;29.83;5.85;;;7.00;99.90;;;;;;5076412;28;20048;-69
2022/02/02 07:13:23;;;;;;;27.38;7.03;;;7.10;99.90;;;;;;5076508;28;20127;-69
2022/02/02 07:18:43;;;;;;;34.30;6.38;;;6.90;99.90;;;;;;5076444;28;20080;-69
2022/02/02 07:29:04;;;;;;;21.20;3.75;;;7.10;99.90;;;;;;5076510;28;20049;-69
2022/02/02 07:31:50;;;;;;;19.45;4.75;;;7.10;99.90;;;;;;5074768;28;20044;-69
2022/02/02 07:34:44;;;;;;;17.88;3.58;;;7.10;99.90;;;;;;5076145;28;20036;-69
2022/02/02 07:37:13;;;;;;;;;;;7.00;99.90;;;;;;5074814;28;20115;-69
2022/02/02 07:39:41;;;;;;;22.02;4.22;;;7.10;99.90;;;;;;5075642;28;19924;-69
2022/02/02 07:42:09;;;;;;;15.00;3.50;;;7.00;99.90;;;;;;5075845;28;20090;-69
2022/02/02 07:44:41;;;;;;;21.10;4.15;;;7.00;99.90;;;;;;5080005;28;20044;-69
2022/02/02 07:47:11;;;;;;;15.95;3.55;;;7.10;99.90;;;;;;5086131;28;20511;-69
2022/02/02 07:49:41;;;;;;;19.95;3.50;;;7.10;99.90;;;;;;5082548;28;20042;-69
2022/02/02 07:52:09;;;;;;;31.55;5.47;;;7.10;99.90;;;;;;5096006;28;20033;-69
2022/02/02 07:54:40;;;;;;;25.77;5.40;;;7.10;99.90;;;;;;5094917;28;20075;-69
2022/02/02 07:57:11;;;;;;;33.72;5.68;;;7.10;99.90;;;;;;5094360;28;20048;-69
2022/02/02 07:59:52;;;;;;;32.25;5.90;;;7.00;99.90;;;;;;5095992;28;20111;-69
2022/02/02 08:02:22;;;;;;;24.48;7.03;;;7.00;99.90;;;;;;5095691;28;20115;-69
2022/02/02 08:04:47;;;;;;;29.48;5.75;;;6.90;99.90;;;;;;5096100;28;20040;-69
2022/02/02 08:07:21;;;;;;;36.50;7.00;;;7.00;99.90;;;;;;5093956;28;20561;-69
2022/02/02 08:09:55;;;;;;;38.28;6.55;;;7.00;99.90;;;;;;5094921;28;20082;-69
2022/02/02 08:12:21;;;;;;;31.17;6.68;;;7.00;99.90;;;;;;5095452;28;20055;-69
2022/02/02 08:14:55;;;;;;;41.17;7.70;;;7.00;99.90;;;;;;5095505;28;20035;-69
2022/02/02 08:17:20;;;;;;;40.90;7.53;;;7.00;99.90;;;;;;5090629;28;20369;-69
2022/02/02 08:19:46;;;;;;;32.35;6.85;;;7.00;99.90;;;;;;5077987;28;20037;-69
2022/02/02 08:22:12;;;;;;;30.17;6.65;;;7.10;99.90;;;;;;5075242;28;20037;-69
2022/02/02 08:24:37;;;;;;;30.83;7.15;;;7.10;99.90;;;;;;5057220;28;20115;-69
2022/02/02 08:27:03;;;;;;;32.15;5.80;;;7.10;99.90;;;;;;5081605;28;20036;-69
2022/02/02 08:29:30;;;;;;;33.75;6.10;;;7.20;99.90;;;;;;5072504;28;20044;-69
2022/02/02 08:31:56;;;;;;;37.70;6.82;;;7.30;99.90;;;;;;5079451;28;20123;-69
2022/02/02 08:34:22;;;;;;;29.25;6.07;;;7.20;99.90;;;;;;5083473;28;20073;-70
2022/02/02 08:36:52;;;;;;;34.80;5.90;;;7.30;99.90;;;;;;5086384;28;20032;-69
2022/02/02 08:41:49;;;;;;;24.98;4.90;;;7.50;99.90;;;;;;5093986;28;20087;-70
2022/02/02 08:44:23;;;;;;;31.98;6.15;;;7.40;99.90;;;;;;5095400;28;20089;-70
2022/02/02 08:47:06;;;;;;;23.27;5.07;;;7.40;99.90;;;;;;5085381;28;20512;-70
2022/02/02 08:49:36;;;;;;;25.60;4.80;;;7.40;99.90;;;;;;5080310;28;20040;-70
2022/02/02 08:52:03;;;;;;;31.48;5.68;;;7.40;99.90;;;;;;5084993;28;20039;-70
2022/02/02 08:57:16;;;;;;;28.38;5.15;;;7.40;99.90;;;;;;5093234;28;20400;-73
2022/02/02 08:59:51;;;;;;;32.60;6.60;;;7.50;99.90;;;;;;5093208;28;20040;-69
2022/02/02 09:02:22;;;;;;;33.45;5.95;;;7.30;99.90;;;;;;5093956;28;20040;-70
2022/02/02 09:07:32;;;;;;;30.08;5.35;;;7.30;99.90;;;;;;5093495;28;20052;-69
2022/02/02 09:10:07;;;;;;;39.00;6.13;;;7.30;99.90;;;;;;5093381;28;20044;-70
2022/02/02 09:20:04;;;;;;;35.10;7.32;;;7.50;99.90;;;;;;5093156;28;20479;-70
2022/02/02 09:23:28;;;;;;;39.30;7.20;;;7.50;99.90;;;;;;5093255;28;20133;-70
2022/02/02 09:26:18;;;;;;;38.78;6.30;;;7.50;99.90;;;;;;5090171;28;20077;-70
2022/02/02 09:34:11;;;;;;;26.50;6.05;;;7.70;99.90;;;;;;5082303;28;20040;-70
2022/02/02 09:36:41;;;;;;;23.20;5.55;;;7.70;99.90;;;;;;5078520;28;20049;-70
2022/02/02 09:39:11;;;;;;;27.48;6.28;;;7.70;99.90;;;;;;5081393;28;20040;-69
2022/02/02 09:44:09;;;;;;;22.88;5.82;;;7.60;99.90;;;;;;5072573;28;20050;-70
2022/02/02 09:49:15;;;;;;;35.50;7.60;;;7.70;99.90;;;;;;5060288;28;20049;-70
2022/02/02 09:51:58;;;;;;;24.58;5.72;;;7.70;99.90;;;;;;5074715;28;20114;-70
2022/02/02 09:54:58;;;;;;;36.88;5.88;;;7.80;99.90;;;;;;5072163;28;20052;-69
2022/02/02 10:03:11;;;;;;;30.02;6.05;;;8.00;99.90;;;;;;5053997;28;20083;-70
2022/02/02 10:05:49;;;;;;;17.77;5.50;;;8.00;99.90;;;;;;5053296;28;20393;-70
2022/02/02 10:10:58;;;;;;;22.17;4.47;;;7.80;99.90;;;;;;5093256;28;20075;-70
2022/02/02 10:14:02;;;;;;;16.83;3.28;;;7.90;99.90;;;;;;5087070;28;20064;-70
2022/02/02 10:16:23;;;;;;;21.42;4.38;;;7.80;99.90;;;;;;5091958;28;20072;-70
2022/02/02 10:18:49;;;;;;;27.02;4.93;;;7.90;99.90;;;;;;5087917;28;20040;-69
2022/02/02 10:21:28;;;;;;;26.13;5.32;;;7.90;99.90;;;;;;5086996;28;20040;-69
2022/02/02 10:23:54;;;;;;;26.25;5.20;;;8.00;99.90;;;;;;5092343;28;20043;-69
2022/02/02 10:26:21;;;;;;;32.70;5.38;;;7.90;99.90;;;;;;5092941;28;20032;-70
2022/02/02 10:28:50;;;;;;;28.52;5.05;;;8.00;99.90;;;;;;5085678;28;20045;-69
2022/02/02 10:31:17;;;;;;;18.13;3.92;;;7.90;99.90;;;;;;5053632;28;20397;-69
2022/02/02 10:33:43;;;;;;;24.20;4.97;;;7.80;99.90;;;;;;5052664;28;20033;-69
2022/02/02 10:36:22;;;;;;;21.13;4.55;;;8.00;99.90;;;;;;5052969;28;20060;-70
2022/02/02 10:39:05;;;;;;;10.70;2.75;;;7.90;99.90;;;;;;5051426;28;20070;-70
2022/02/02 10:41:50;;;;;;;25.60;4.47;;;8.00;99.90;;;;;;5054730;28;20489;-70
2022/02/02 10:44:24;;;;;;;16.27;3.85;;;8.00;99.90;;;;;;5057575;28;20060;-69
2022/02/02 10:49:32;;;;;;;19.30;3.95;;;8.20;99.90;;;;;;5085065;28;20036;-70
2022/02/02 10:52:21;;;;;;;19.35;3.20;;;8.10;99.90;;;;;;5082845;28;20029;-70
2022/02/02 10:55:29;;;;;;;22.17;4.28;;;8.10;99.90;;;;;;5087253;28;20097;-69
2022/02/02 10:58:17;;;;;;;18.30;5.93;;;8.10;99.90;;;;;;5095451;28;20052;-70
2022/02/02 11:00:52;;;;;;;14.00;2.90;;;8.10;99.90;;;;;;5095555;28;20040;-70
2022/02/02 11:08:50;;;;;;;21.98;3.80;;;8.10;99.90;;;;;;5096749;28;20051;-70
2022/02/02 11:11:16;;;;;;;25.65;4.07;;;8.20;99.90;;;;;;5095592;28;20048;-69
2022/02/02 11:13:42;;;;;;;21.63;3.83;;;8.20;99.90;;;;;;5095391;28;20367;-68
2022/02/02 11:16:13;;;;;;;20.48;4.28;;;8.30;99.90;;;;;;5096280;28;20052;-69
2022/02/02 11:18:42;;;;;;;22.17;4.40;;;8.40;99.90;;;;;;5097160;28;20032;-69
2022/02/02 11:21:09;;;;;;;21.98;3.38;;;8.50;99.90;;;;;;5096476;28;20449;-69
2022/02/02 11:23:48;;;;;;;17.75;3.92;;;8.50;99.90;;;;;;5097005;28;20040;-70
2022/02/02 11:26:44;;;;;;;28.48;5.85;;;8.50;99.90;;;;;;5096390;28;20119;-70
2022/02/02 11:29:30;;;;;;;21.65;4.72;;;8.50;99.90;;;;;;5095416;28;20036;-70
2022/02/02 11:32:05;;;;;;;23.88;4.13;;;8.60;99.90;;;;;;5094688;28;20403;-69
2022/02/02 11:34:30;;;;;;;27.27;5.55;;;8.60;99.90;;;;;;5096557;28;20115;-70
2022/02/02 11:37:00;;;;;;;18.77;4.95;;;8.70;99.90;;;;;;5096275;28;20119;-70
2022/02/02 11:39:46;;;;;;;17.65;3.50;;;8.60;99.90;;;;;;5094603;28;20118;-70
2022/02/02 11:43:00;;;;;;;17.50;4.30;;;8.60;99.90;;;;;;5096548;28;20032;-70
2022/02/02 11:45:44;;;;;;;21.65;4.55;;;8.70;99.90;;;;;;5096231;28;20036;-70
2022/02/02 11:48:18;;;;;;;15.15;3.45;;;8.70;99.90;;;;;;5095812;28;20553;-70
2022/02/02 11:50:46;;;;;;;20.80;4.13;;;8.80;99.90;;;;;;5096899;28;20044;-69
2022/02/02 11:53:11;;;;;;;18.30;4.53;;;8.90;99.90;;;;;;5087287;28;20563;-70
2022/02/02 11:55:42;;;;;;;15.10;3.65;;;9.00;99.90;;;;;;5082576;28;20124;-69
2022/02/02 11:58:16;;;;;;;17.98;3.20;;;9.00;99.90;;;;;;5075734;28;20496;-70
2022/02/02 12:01:00;;;;;;;22.95;3.92;;;9.00;99.90;;;;;;5075938;28;20036;-70
2022/02/02 12:09:27;;;;;;;18.52;3.08;;;9.00;99.90;;;;;;5074559;28;20066;-70
2022/02/02 12:47:42;;;;;;;16.38;2.90;;;8.80;99.70;;;;;;5073100;28;20098;-71
2022/02/02 12:50:28;;;;;;;16.90;3.53;;;8.80;99.90;;;;;;5073214;28;20072;-68
2022/02/02 13:02:59;;;;;;;17.92;2.78;;;8.90;98.00;;;;;;5072818;28;20132;-70
2022/02/02 13:05:26;;;;;;;11.80;3.00;;;8.90;98.80;;;;;;5073130;28;20040;-70
2022/02/02 13:07:59;;;;;;;18.75;2.75;;;8.90;99.20;;;;;;5074294;28;20036;-70
2022/02/02 13:10:34;;;;;;;14.85;3.13;;;8.80;99.10;;;;;;5074202;28;20044;-70
2022/02/02 13:13:28;;;;;;;12.05;2.55;;;8.80;99.50;;;;;;5057873;28;20037;-70
2022/02/02 13:16:21;;;;;;;10.13;2.10;;;8.90;99.80;;;;;;5056014;28;20052;-70
2022/02/02 13:18:51;;;;;;;12.27;2.78;;;8.90;98.90;;;;;;5072177;28;20049;-71
2022/02/02 13:21:45;;;;;;;11.27;2.38;;;8.90;99.60;;;;;;5056402;28;20040;-70
2022/02/02 13:24:36;;;;;;;10.40;2.00;;;8.90;99.70;;;;;;5051443;28;20059;-70
2022/02/02 13:27:20;;;;;;;5.97;1.73;;;8.80;99.70;;;;;;5072127;28;20048;-69
2022/02/02 13:30:00;;;;;;;11.80;2.67;;;8.70;99.50;;;;;;5055584;28;20047;-69
2022/02/02 13:32:51;;;;;;;11.30;2.50;;;8.80;99.00;;;;;;5072296;28;20044;-69
2022/02/02 13:35:28;;;;;;;13.77;2.40;;;8.80;99.30;;;;;;5056271;28;20037;-70
2022/02/02 13:54:34;;;;;;;11.82;2.65;;;8.80;98.70;;;;;;5071037;28;20040;-70
2022/02/02 13:57:43;;;;;;;12.88;2.00;;;8.80;98.90;;;;;;5071424;28;20048;-69
2022/02/02 14:03:47;;;;;;;12.65;2.30;;;8.80;98.90;;;;;;5073226;28;20049;-70
2022/02/02 14:05:22;;;;;;;14.98;2.50;;;8.70;99.90;;;;;;5073718;28;20044;-69
2022/02/02 14:08:00;;;;;;;12.57;3.05;;;8.70;99.90;;;;;;5080249;28;20165;-69
2022/02/02 14:10:43;;;;;;;9.50;2.08;;;8.70;99.90;;;;;;5090963;28;20408;-70
2022/02/02 14:32:32;;;;;;;14.38;2.88;;;8.70;99.90;;;;;;5073673;28;20473;-70
2022/02/02 14:34:57;;;;;;;14.60;3.05;;;8.70;99.90;;;;;;5072279;28;20048;-70
2022/02/02 14:37:30;;;;;;;13.85;3.10;;;8.70;99.90;;;;;;5074204;28;20109;-71
2022/02/02 14:40:01;;;;;;;11.88;3.17;;;8.70;99.90;;;;;;5078318;28;20036;-70
2022/02/02 14:42:31;;;;;;;13.30;3.15;;;8.70;99.90;;;;;;5074344;28;20086;-70
2022/02/02 14:45:04;;;;;;;12.43;2.58;;;8.70;99.90;;;;;;5093539;28;20047;-69
2022/02/02 14:47:34;;;;;;;15.07;2.70;;;8.70;99.90;;;;;;5091458;28;20044;-70
2022/02/02 14:50:12;;;;;;;13.27;2.85;;;8.70;99.90;;;;;;5093571;28;20144;-70
2022/02/02 15:28:01;;;;;;;11.55;3.58;;;8.60;99.90;;;;;;5073970;28;20045;-72
2022/02/02 15:30:34;;;;;;;13.95;2.90;;;8.60;99.90;;;;;;5076163;28;20124;-72
2022/02/02 15:33:04;;;;;;;14.98;2.90;;;8.60;99.90;;;;;;5075105;28;20058;-72
2022/02/02 15:35:32;;;;;;;10.52;2.55;;;8.50;99.90;;;;;;5075908;28;20068;-72
2022/02/02 15:38:16;;;;;;;9.60;2.92;;;8.50;99.90;;;;;;5074563;28;20094;-72
2022/02/02 15:40:50;;;;;;;12.75;2.55;;;8.50;99.90;;;;;;5075908;28;20041;-73
2022/02/02 15:57:40;;;;;;;16.38;2.97;;;8.30;99.90;;;;;;5074211;28;20041;-73
2022/02/02 16:02:13;;;;;;;19.58;4.80;;;8.20;99.90;;;;;;5074599;28;20044;-70
2022/02/02 16:04:39;;;;;;;14.57;2.92;;;8.10;99.90;;;;;;5074760;28;20044;-71
2022/02/02 16:07:08;;;;;;;12.57;2.50;;;8.10;99.90;;;;;;5073712;28;20044;-72
2022/02/02 16:09:53;;;;;;;13.65;3.00;;;8.00;99.90;;;;;;5057605;28;20071;-71
2022/02/02 16:12:28;;;;;;;18.67;3.17;;;8.00;99.90;;;;;;5075798;28;20358;-71
2022/02/02 16:15:14;;;;;;;13.13;3.63;;;7.90;99.90;;;;;;5074437;28;20040;-72
2022/02/02 16:44:09;;;;;;;15.52;3.00;;;7.40;99.90;;;;;;5074005;28;20048;-70
2022/02/02 16:46:34;;;;;;;12.70;3.55;;;7.40;99.90;;;;;;5073075;28;20118;-71
2022/02/02 16:49:00;;;;;;;19.80;2.67;;;7.40;99.90;;;;;;5073439;28;20048;-70
2022/02/02 16:51:26;;;;;;;10.77;3.25;;;7.30;99.90;;;;;;5074513;28;20051;-71
2022/02/02 16:53:54;;;;;;;13.35;3.05;;;7.30;99.90;;;;;;5057263;28;20032;-71
2022/02/02 17:32:35;;;;;;;10.88;4.35;;;6.80;99.90;;;;;;5073704;28;20047;-70
2022/02/02 17:34:45;;;;;;;14.70;4.22;;;6.80;99.90;;;;;;5069543;28;20123;-70
2022/02/02 17:37:35;;;;;;;11.52;3.38;;;6.80;99.90;;;;;;5072391;28;20487;-70
2022/02/02 17:40:03;;;;;;;13.23;3.08;;;6.70;99.90;;;;;;5073550;28;20048;-71
2022/02/02 18:20:13;;;;;;;12.80;4.00;;;6.60;99.90;;;;;;5073129;28;20053;-71
2022/02/02 18:22:49;;;;;;;14.20;4.53;;;6.50;99.90;;;;;;5072257;28;20120;-71
2022/02/02 18:25:33;;;;;;;13.45;4.72;;;6.50;99.90;;;;;;5071073;28;20047;-70
2022/02/02 18:28:15;;;;;;;10.88;4.40;;;6.50;99.90;;;;;;5071442;28;20106;-71
2022/02/02 18:30:55;;;;;;;14.20;3.65;;;6.50;99.90;;;;;;5063165;28;20047;-70
2022/02/02 18:33:39;;;;;;;17.35;3.70;;;6.40;99.90;;;;;;5074854;28;20056;-70
2022/02/02 18:52:00;;;;;;;18.67;4.10;;;6.20;99.90;;;;;;5079472;28;20443;-70
2022/02/02 19:37:11;;;;;;;19.77;4.03;;;5.60;99.90;;;;;;5095096;28;20492;-70
2022/02/02 19:37:38;;;;;;;11.50;3.95;;;5.70;99.90;;;;;;5094538;28;20055;-70
2022/02/02 19:40:13;;;;;;;19.55;5.00;;;5.60;99.90;;;;;;5096156;28;20479;-70
2022/02/02 19:56:40;;;;;;;17.02;4.85;;;5.80;99.90;;;;;;5094294;28;20048;-70
2022/02/02 20:02:03;;;;;;;15.65;4.97;;;5.80;99.90;;;;;;5096468;28;20472;-70
2022/02/02 20:04:43;;;;;;;15.63;5.20;;;5.80;99.90;;;;;;5095937;28;20047;-70
2022/02/02 20:12:35;;;;;;;19.02;6.03;;;5.80;99.90;;;;;;5095925;28;20044;-70
2022/02/02 20:15:01;;;;;;;21.45;5.80;;;5.80;99.90;;;;;;5093442;28;20048;-70
2022/02/02 20:17:27;;;;;;;25.40;7.22;;;5.90;99.90;;;;;;5095317;28;20044;-70
2022/02/02 20:19:57;;;;;;;23.60;6.95;;;5.90;99.90;;;;;;5077665;28;20036;-71
2022/02/02 20:22:25;;;;;;;23.27;7.30;;;5.90;99.90;;;;;;5095142;28;20450;-70
2022/02/02 20:24:56;;;;;;;19.88;6.53;;;5.90;99.90;;;;;;5095948;28;20036;-70
2022/02/02 20:27:21;;;;;;;21.17;6.00;;;5.90;99.90;;;;;;5093861;28;20044;-70
2022/02/02 20:29:47;;;;;;;18.55;5.30;;;5.90;99.90;;;;;;5095291;28;20044;-70
2022/02/02 20:32:13;;;;;;;19.85;5.07;;;5.90;99.90;;;;;;5095519;28;20047;-70
2022/02/02 20:34:39;;;;;;;18.98;5.50;;;5.80;99.90;;;;;;5094173;28;20044;-70
2022/02/02 20:37:04;;;;;;;30.92;5.72;;;5.90;99.90;;;;;;5093877;28;20128;-70
2022/02/02 20:42:02;;;;;;;23.55;5.07;;;5.90;99.90;;;;;;5095614;28;20051;-70
2022/02/02 20:44:45;;;;;;;21.38;4.88;;;5.90;99.90;;;;;;5094888;28;20494;-70
2022/02/02 21:01:28;;;;;;;22.25;6.45;;;5.90;99.90;;;;;;5094097;28;20044;-70
2022/02/02 21:04:04;;;;;;;23.95;6.00;;;5.90;99.90;;;;;;5093265;28;20132;-71
2022/02/02 21:06:40;;;;;;;21.90;6.15;;;5.80;99.90;;;;;;5094498;28;20127;-70
2022/02/02 21:13:38;;;;;;;27.13;7.43;;;5.90;99.90;;;;;;5095164;28;20051;-70
2022/02/02 21:14:43;;;;;;;17.92;5.50;;;5.90;99.90;;;;;;5092960;28;20051;-70
2022/02/02 21:17:18;;;;;;;25.60;7.40;;;5.90;99.90;;;;;;5094038;28;20050;-70
2022/02/02 21:23:04;;;;;;;23.65;6.28;;;5.90;99.90;;;;;;5081678;28;20419;-70
2022/02/02 21:25:39;;;;;;;19.88;5.90;;;5.90;99.90;;;;;;5094136;28;20039;-71
2022/02/02 21:28:07;;;;;;;26.67;7.30;;;6.00;99.90;;;;;;5094901;28;20075;-70
2022/02/02 21:30:34;;;;;;;23.67;6.63;;;6.00;99.90;;;;;;5088054;28;20403;-71
2022/02/02 21:33:00;;;;;;;23.23;7.10;;;6.10;99.90;;;;;;5082398;28;20051;-70
2022/02/02 21:35:26;;;;;;;27.75;7.78;;;6.10;99.90;;;;;;5094040;28;20040;-70
2022/02/02 21:38:00;;;;;;;23.30;8.07;;;6.10;99.90;;;;;;5094109;28;20476;-70
2022/02/02 21:40:27;;;;;;;25.08;9.20;;;6.20;99.90;;;;;;5093878;28;20414;-69
2022/02/02 21:42:55;;;;;;;30.38;9.75;;;6.20;99.90;;;;;;5094030;28;20109;-70
2022/02/02 21:45:21;;;;;;;33.00;9.55;;;6.30;99.90;;;;;;5094292;28;20051;-70
2022/02/02 21:47:47;;;;;;;30.10;9.77;;;6.30;99.90;;;;;;5093608;28;20365;-70
2022/02/02 21:50:17;;;;;;;29.17;9.75;;;6.40;99.90;;;;;;5094616;28;20036;-70
2022/02/02 21:52:43;;;;;;;24.35;9.48;;;6.40;99.90;;;;;;5092387;28;20448;-70
2022/02/02 21:55:10;;;;;;;22.98;9.32;;;6.40;99.90;;;;;;5093606;28;20047;-70
2022/02/02 21:57:36;;;;;;;30.48;10.30;;;6.50;99.90;;;;;;5093443;28;20127;-70
2022/02/02 22:00:08;;;;;;;25.55;9.82;;;6.40;99.90;;;;;;5094236;28;20069;-70
2022/02/02 22:02:35;;;;;;;31.23;11.40;;;6.50;99.90;;;;;;5092817;28;20173;-70
2022/02/02 22:05:03;;;;;;;32.95;11.27;;;6.50;99.90;;;;;;5092529;28;20047;-70
2022/02/02 22:07:30;;;;;;;32.15;12.10;;;6.50;99.90;;;;;;5091896;28;20480;-70
2022/02/02 22:09:57;;;;;;;30.30;12.52;;;6.50;99.90;;;;;;5093345;28;20484;-70
2022/02/02 22:12:24;;;;;;;35.63;11.93;;;6.50;99.90;;;;;;5093779;28;20042;-70
2022/02/02 22:14:51;;;;;;;35.78;12.10;;;6.50;99.90;;;;;;5093487;28;20036;-70
2022/02/02 22:17:18;;;;;;;27.70;12.38;;;6.50;99.90;;;;;;5093590;28;20520;-70
2022/02/02 22:19:44;;;;;;;32.65;12.85;;;6.50;99.90;;;;;;5094024;28;20500;-70
2022/02/02 22:22:10;;;;;;;26.42;12.15;;;6.50;99.90;;;;;;5093107;28;20165;-70
2022/02/02 22:24:38;;;;;;;25.00;12.38;;;6.50;99.90;;;;;;5093465;28;20547;-70
2022/02/02 22:27:04;;;;;;;32.60;13.73;;;6.60;99.90;;;;;;5091800;28;20040;-70
2022/02/02 22:29:31;;;;;;;37.45;15.18;;;6.60;99.90;;;;;;5093590;28;20047;-70
2022/02/02 22:31:56;;;;;;;32.15;13.85;;;6.60;99.90;;;;;;5093260;28;20036;-70
2022/02/02 22:34:22;;;;;;;34.13;14.32;;;6.70;99.90;;;;;;5094000;28;20357;-70
2022/02/02 22:36:50;;;;;;;27.77;12.93;;;6.70;99.90;;;;;;5092553;28;20055;-70
2022/02/02 22:39:16;;;;;;;32.08;14.10;;;6.70;99.90;;;;;;5097366;28;20114;-70
2022/02/02 22:41:41;;;;;;;35.40;13.00;;;6.70;99.90;;;;;;5096603;28;20153;-70
2022/02/02 22:44:11;;;;;;;27.65;14.13;;;6.70;99.90;;;;;;5079953;28;20040;-70
2022/02/02 22:46:38;;;;;;;33.08;13.25;;;6.70;99.90;;;;;;5097193;28;20541;-70
2022/02/02 22:49:03;;;;;;;30.45;13.15;;;6.80;99.90;;;;;;5097210;28;20075;-70
2022/02/02 22:51:31;;;;;;;28.13;14.85;;;6.80;99.90;;;;;;5097437;28;20063;-69
2022/02/02 22:53:57;;;;;;;32.70;14.57;;;6.90;99.90;;;;;;5097256;28;20549;-70
2022/02/02 22:56:23;;;;;;;35.20;15.27;;;6.80;99.90;;;;;;5096949;28;20040;-70
2022/02/02 22:58:49;;;;;;;43.95;16.55;;;6.90;99.90;;;;;;5097589;28;20605;-70
2022/02/02 23:01:17;;;;;;;32.65;14.77;;;6.90;99.90;;;;;;5097188;28;20036;-70
2022/02/02 23:03:43;;;;;;;38.58;15.10;;;6.90;99.90;;;;;;5097530;28;20442;-70
2022/02/02 23:06:08;;;;;;;28.17;15.00;;;7.00;99.90;;;;;;5096887;28;20116;-70
2022/02/02 23:08:34;;;;;;;33.78;14.45;;;7.00;99.90;;;;;;5095531;28;20052;-70
2022/02/02 23:11:00;;;;;;;37.35;14.95;;;7.00;99.90;;;;;;5096141;28;20046;-70
2022/02/02 23:13:27;;;;;;;33.60;17.20;;;7.10;99.90;;;;;;5096775;28;20102;-70
2022/02/02 23:16:07;;;;;;;45.22;16.25;;;7.10;99.90;;;;;;5096609;28;20519;-70